sensor_id;sensor_type;location;lat;lon;timestamp;pressure;altitude;pressure_sealevel;temperature;humidity
41040;BME280;48586;50.122;18.972;2023-04-28T00:01:51;98966.94;;;4.29;51.12
41040;BME280;48586;50.122;18.972;2023-04-28T00:03:57;98972.00;;;4.31;51.35
41040;BME280;48586;50.122;18.972;2023-04-28T00:06:03;98977.28;;;4.31;51.16
41040;BME280;48586;50.122;18.972;2023-04-28T00:08:07;98974.66;;;4.31;51.43
41040;BME280;48586;50.122;18.972;2023-04-28T00:10:12;98973.66;;;4.32;51.49
41040;BME280;48586;50.122;18.972;2023-04-28T00:12:19;98967.56;;;4.31;51.58
41040;BME280;48586;50.122;18.972;2023-04-28T00:14:24;98970.38;;;4.30;51.54
41040;BME280;48586;50.122;18.972;2023-04-28T00:16:31;98974.66;;;4.31;51.34
41040;BME280;48586;50.122;18.972;2023-04-28T00:18:36;98969.72;;;4.28;51.33
41040;BME280;48586;50.122;18.972;2023-04-28T00:20:40;98970.94;;;4.25;51.58
41040;BME280;48586;50.122;18.972;2023-04-28T00:22:46;98967.47;;;4.24;51.59
41040;BME280;48586;50.122;18.972;2023-04-28T00:24:51;98970.28;;;4.23;51.51
41040;BME280;48586;50.122;18.972;2023-04-28T00:26:56;98968.97;;;4.19;51.57
41040;BME280;48586;50.122;18.972;2023-04-28T00:29:04;98979.72;;;4.17;51.84
41040;BME280;48586;50.122;18.972;2023-04-28T00:31:10;98971.19;;;4.15;52.08
41040;BME280;48586;50.122;18.972;2023-04-28T00:33:16;98971.00;;;4.17;51.97
41040;BME280;48586;50.122;18.972;2023-04-28T00:35:21;98963.44;;;4.14;52.12
41040;BME280;48586;50.122;18.972;2023-04-28T00:37:27;98963.97;;;4.09;52.21
41040;BME280;48586;50.122;18.972;2023-04-28T00:39:32;98959.72;;;4.08;52.13
41040;BME280;48586;50.122;18.972;2023-04-28T00:41:37;98956.25;;;4.08;52.46
41040;BME280;48586;50.122;18.972;2023-04-28T00:43:45;98954.63;;;4.07;52.44
41040;BME280;48586;50.122;18.972;2023-04-28T00:45:53;98958.44;;;4.04;52.63
41040;BME280;48586;50.122;18.972;2023-04-28T00:47:59;98957.78;;;4.02;52.81
41040;BME280;48586;50.122;18.972;2023-04-28T00:50:04;98958.78;;;4.01;52.66
41040;BME280;48586;50.122;18.972;2023-04-28T00:52:10;98965.53;;;4.04;53.10
41040;BME280;48586;50.122;18.972;2023-04-28T00:54:16;98966.34;;;4.04;53.16
41040;BME280;48586;50.122;18.972;2023-04-28T00:56:22;98965.31;;;4.05;53.22
41040;BME280;48586;50.122;18.972;2023-04-28T00:58:29;98976.34;;;4.09;52.95
41040;BME280;48586;50.122;18.972;2023-04-28T01:00:36;98977.63;;;4.13;52.91
41040;BME280;48586;50.122;18.972;2023-04-28T01:02:43;98973.81;;;4.15;52.64
41040;BME280;48586;50.122;18.972;2023-04-28T01:04:49;98972.16;;;4.14;52.47
41040;BME280;48586;50.122;18.972;2023-04-28T01:06:57;98974.34;;;4.11;52.38
41040;BME280;48586;50.122;18.972;2023-04-28T01:09:05;98972.22;;;4.06;52.63
41040;BME280;48586;50.122;18.972;2023-04-28T01:11:13;98967.34;;;4.03;52.63
41040;BME280;48586;50.122;18.972;2023-04-28T01:13:42;98971.47;;;3.97;52.96
41040;BME280;48586;50.122;18.972;2023-04-28T01:15:47;98967.75;;;3.92;53.06
41040;BME280;48586;50.122;18.972;2023-04-28T01:17:56;98963.84;;;3.88;53.23
41040;BME280;48586;50.122;18.972;2023-04-28T01:20:03;98964.03;;;3.86;53.63
41040;BME280;48586;50.122;18.972;2023-04-28T01:22:09;98964.19;;;3.85;53.84
41040;BME280;48586;50.122;18.972;2023-04-28T01:24:19;98965.19;;;3.84;53.68
41040;BME280;48586;50.122;18.972;2023-04-28T01:26:25;98967.00;;;3.83;53.64
41040;BME280;48586;50.122;18.972;2023-04-28T01:28:30;98969.81;;;3.82;53.70
41040;BME280;48586;50.122;18.972;2023-04-28T01:30:37;98973.97;;;3.76;53.82
41040;BME280;48586;50.122;18.972;2023-04-28T01:32:41;98972.34;;;3.75;53.91
41040;BME280;48586;50.122;18.972;2023-04-28T01:34:46;98960.34;;;3.72;53.86
41040;BME280;48586;50.122;18.972;2023-04-28T01:36:52;98962.31;;;3.70;53.62
41040;BME280;48586;50.122;18.972;2023-04-28T01:38:57;98961.69;;;3.68;53.78
41040;BME280;48586;50.122;18.972;2023-04-28T01:41:05;98963.03;;;3.64;53.76
41040;BME280;48586;50.122;18.972;2023-04-28T01:43:11;98960.13;;;3.59;53.80
41040;BME280;48586;50.122;18.972;2023-04-28T01:45:15;98957.66;;;3.58;54.15
41040;BME280;48586;50.122;18.972;2023-04-28T01:47:21;98964.09;;;3.55;54.17
41040;BME280;48586;50.122;18.972;2023-04-28T01:49:27;98959.16;;;3.52;54.56
41040;BME280;48586;50.122;18.972;2023-04-28T01:51:32;98962.81;;;3.51;54.50
41040;BME280;48586;50.122;18.972;2023-04-28T01:53:37;98965.59;;;3.49;54.47
41040;BME280;48586;50.122;18.972;2023-04-28T01:55:43;98969.72;;;3.52;54.66
41040;BME280;48586;50.122;18.972;2023-04-28T01:57:51;98963.63;;;3.52;54.39
41040;BME280;48586;50.122;18.972;2023-04-28T01:59:56;98962.63;;;3.53;54.34
41040;BME280;48586;50.122;18.972;2023-04-28T02:02:03;98974.97;;;3.52;54.60
41040;BME280;48586;50.122;18.972;2023-04-28T02:04:09;98967.06;;;3.52;55.00
41040;BME280;48586;50.122;18.972;2023-04-28T02:06:13;98967.06;;;3.52;55.02
41040;BME280;48586;50.122;18.972;2023-04-28T02:08:20;98964.44;;;3.52;55.27
41040;BME280;48586;50.122;18.972;2023-04-28T02:10:27;98967.69;;;3.54;54.92
41040;BME280;48586;50.122;18.972;2023-04-28T02:12:31;98965.72;;;3.56;54.56
41040;BME280;48586;50.122;18.972;2023-04-28T02:14:40;98965.72;;;3.56;54.35
41040;BME280;48586;50.122;18.972;2023-04-28T02:16:44;98964.09;;;3.55;54.50
41040;BME280;48586;50.122;18.972;2023-04-28T02:18:50;98966.06;;;3.53;54.98
41040;BME280;48586;50.122;18.972;2023-04-28T02:20:55;98965.06;;;3.54;55.09
41040;BME280;48586;50.122;18.972;2023-04-28T02:23:00;98958.16;;;3.53;54.73
41040;BME280;48586;50.122;18.972;2023-04-28T02:25:08;98972.34;;;3.52;54.65
41040;BME280;48586;50.122;18.972;2023-04-28T02:27:14;98961.16;;;3.50;54.80
41040;BME280;48586;50.122;18.972;2023-04-28T02:29:18;98963.16;;;3.48;54.87
41040;BME280;48586;50.122;18.972;2023-04-28T02:31:25;98967.75;;;3.46;54.92
41040;BME280;48586;50.122;18.972;2023-04-28T02:33:32;98961.84;;;3.44;55.06
41040;BME280;48586;50.122;18.972;2023-04-28T02:35:36;98956.94;;;3.41;55.05
41040;BME280;48586;50.122;18.972;2023-04-28T02:37:41;98954.66;;;3.38;54.70
41040;BME280;48586;50.122;18.972;2023-04-28T02:39:47;98956.00;;;3.34;54.80
41040;BME280;48586;50.122;18.972;2023-04-28T02:41:52;98954.72;;;3.30;55.09
41040;BME280;48586;50.122;18.972;2023-04-28T02:43:59;98957.06;;;3.25;54.58
41040;BME280;48586;50.122;18.972;2023-04-28T02:46:04;98955.09;;;3.18;54.62
41040;BME280;48586;50.122;18.972;2023-04-28T02:48:12;98955.81;;;3.12;54.38
41040;BME280;48586;50.122;18.972;2023-04-28T02:50:17;98949.56;;;3.05;54.65
41040;BME280;48586;50.122;18.972;2023-04-28T02:52:22;98950.88;;;3.01;54.87
41040;BME280;48586;50.122;18.972;2023-04-28T02:54:27;98948.97;;;2.95;54.99
41040;BME280;48586;50.122;18.972;2023-04-28T02:56:34;98941.41;;;2.92;55.23
41040;BME280;48586;50.122;18.972;2023-04-28T02:58:42;98946.00;;;2.90;55.42
41040;BME280;48586;50.122;18.972;2023-04-28T03:00:48;98947.81;;;2.89;55.55
41040;BME280;48586;50.122;18.972;2023-04-28T03:02:54;98946.66;;;2.92;56.17
41040;BME280;48586;50.122;18.972;2023-04-28T03:05:03;98945.50;;;2.94;55.46
41040;BME280;48586;50.122;18.972;2023-04-28T03:07:08;98948.97;;;2.95;55.29
41040;BME280;48586;50.122;18.972;2023-04-28T03:09:12;98943.03;;;2.93;55.43
41040;BME280;48586;50.122;18.972;2023-04-28T03:11:20;98942.41;;;2.91;55.76
41040;BME280;48586;50.122;18.972;2023-04-28T03:13:25;98945.34;;;2.88;55.94
41040;BME280;48586;50.122;18.972;2023-04-28T03:15:29;98940.44;;;2.85;55.86
41040;BME280;48586;50.122;18.972;2023-04-28T03:17:35;98953.94;;;2.82;56.01
41040;BME280;48586;50.122;18.972;2023-04-28T03:19:42;98951.84;;;2.77;56.57
41040;BME280;48586;50.122;18.972;2023-04-28T03:21:48;98957.25;;;2.76;56.07
41040;BME280;48586;50.122;18.972;2023-04-28T03:23:53;98955.78;;;2.73;55.94
41040;BME280;48586;50.122;18.972;2023-04-28T03:25:59;98957.13;;;2.69;56.03
41040;BME280;48586;50.122;18.972;2023-04-28T03:28:03;98961.09;;;2.65;55.98
41040;BME280;48586;50.122;18.972;2023-04-28T03:30:09;98952.53;;;2.63;55.90
41040;BME280;48586;50.122;18.972;2023-04-28T03:32:14;98951.06;;;2.60;56.03
41040;BME280;48586;50.122;18.972;2023-04-28T03:34:18;98946.78;;;2.59;56.38
41040;BME280;48586;50.122;18.972;2023-04-28T03:36:24;98949.59;;;2.58;56.82
41040;BME280;48586;50.122;18.972;2023-04-28T03:38:32;98948.94;;;2.56;56.85
41040;BME280;48586;50.122;18.972;2023-04-28T03:40:36;98943.22;;;2.52;56.83
41040;BME280;48586;50.122;18.972;2023-04-28T03:42:47;98946.16;;;2.49;57.00
41040;BME280;48586;50.122;18.972;2023-04-28T03:45:00;98940.09;;;2.48;56.40
41040;BME280;48586;50.122;18.972;2023-04-28T03:47:04;98939.44;;;2.46;56.58
41040;BME280;48586;50.122;18.972;2023-04-28T03:49:10;98940.41;;;2.45;56.34
41040;BME280;48586;50.122;18.972;2023-04-28T03:51:15;98931.72;;;2.45;56.42
41040;BME280;48586;50.122;18.972;2023-04-28T03:53:21;98937.66;;;2.47;56.57
41040;BME280;48586;50.122;18.972;2023-04-28T03:55:30;98931.38;;;2.48;56.51
41040;BME280;48586;50.122;18.972;2023-04-28T03:57:34;98932.69;;;2.52;56.61
41040;BME280;48586;50.122;18.972;2023-04-28T03:59:38;98944.66;;;2.55;56.61
41040;BME280;48586;50.122;18.972;2023-04-28T04:01:45;98941.41;;;2.53;56.33
41040;BME280;48586;50.122;18.972;2023-04-28T04:03:49;98945.47;;;2.55;56.30
41040;BME280;48586;50.122;18.972;2023-04-28T04:05:54;98941.56;;;2.51;56.54
41040;BME280;48586;50.122;18.972;2023-04-28T04:07:59;98948.47;;;2.52;56.45
41040;BME280;48586;50.122;18.972;2023-04-28T04:10:04;98942.41;;;2.52;56.50
41040;BME280;48586;50.122;18.972;2023-04-28T04:12:14;98940.22;;;2.55;56.68
41040;BME280;48586;50.122;18.972;2023-04-28T04:14:19;98950.41;;;2.58;56.76
41040;BME280;48586;50.122;18.972;2023-04-28T04:16:24;98942.19;;;2.61;56.97
41040;BME280;48586;50.122;18.972;2023-04-28T04:18:30;98949.56;;;2.66;56.80
41040;BME280;48586;50.122;18.972;2023-04-28T04:20:55;98945.44;;;2.71;56.73
41040;BME280;48586;50.122;18.972;2023-04-28T04:22:59;98947.53;;;2.76;56.54
41040;BME280;48586;50.122;18.972;2023-04-28T04:25:05;98951.31;;;2.82;56.57
41040;BME280;48586;50.122;18.972;2023-04-28T04:27:13;98960.50;;;2.86;56.59
41040;BME280;48586;50.122;18.972;2023-04-28T04:29:19;98956.69;;;2.88;56.57
41040;BME280;48586;50.122;18.972;2023-04-28T04:31:23;98962.13;;;2.95;56.79
41040;BME280;48586;50.122;18.972;2023-04-28T04:33:28;98964.72;;;3.03;56.69
41040;BME280;48586;50.122;18.972;2023-04-28T04:35:32;98955.28;;;3.09;56.49
41040;BME280;48586;50.122;18.972;2023-04-28T04:37:37;98957.09;;;3.16;56.69
41040;BME280;48586;50.122;18.972;2023-04-28T04:39:42;98953.25;;;3.27;56.65
41040;BME280;48586;50.122;18.972;2023-04-28T04:41:46;98947.41;;;3.40;56.65
41040;BME280;48586;50.122;18.972;2023-04-28T04:44:28;98949.44;;;3.53;56.65
41040;BME280;48586;50.122;18.972;2023-04-28T04:46:34;98942.13;;;3.63;56.28
41040;BME280;48586;50.122;18.972;2023-04-28T04:48:38;98949.63;;;3.74;56.04
41040;BME280;48586;50.122;18.972;2023-04-28T04:50:43;98951.66;;;3.87;55.98
41040;BME280;48586;50.122;18.972;2023-04-28T04:52:48;98947.59;;;3.99;55.71
41040;BME280;48586;50.122;18.972;2023-04-28T04:54:54;98949.44;;;4.13;55.30
41040;BME280;48586;50.122;18.972;2023-04-28T04:57:00;98944.00;;;4.30;55.27
41040;BME280;48586;50.122;18.972;2023-04-28T04:59:40;98950.56;;;4.48;54.98
41040;BME280;48586;50.122;18.972;2023-04-28T05:01:50;98946.47;;;4.61;54.45
41040;BME280;48586;50.122;18.972;2023-04-28T05:03:56;98949.72;;;4.78;54.46
41040;BME280;48586;50.122;18.972;2023-04-28T05:06:01;98952.44;;;4.99;53.75
41040;BME280;48586;50.122;18.972;2023-04-28T05:08:19;98947.66;;;5.24;53.22
41040;BME280;48586;50.122;18.972;2023-04-28T05:10:24;98944.03;;;5.46;52.38
41040;BME280;48586;50.122;18.972;2023-04-28T05:12:30;98950.75;;;5.70;51.97
41040;BME280;48586;50.122;18.972;2023-04-28T05:14:35;98948.53;;;5.95;51.38
41040;BME280;48586;50.122;18.972;2023-04-28T05:16:43;98948.06;;;6.13;49.63
41040;BME280;48586;50.122;18.972;2023-04-28T05:18:58;98943.75;;;6.34;49.27
41040;BME280;48586;50.122;18.972;2023-04-28T05:21:04;98946.53;;;6.54;49.66
41040;BME280;48586;50.122;18.972;2023-04-28T05:23:09;98944.97;;;6.72;48.32
41040;BME280;48586;50.122;18.972;2023-04-28T05:25:15;98945.91;;;6.93;48.90
41040;BME280;48586;50.122;18.972;2023-04-28T05:27:20;98948.00;;;7.11;46.60
41040;BME280;48586;50.122;18.972;2023-04-28T05:29:25;98940.28;;;7.22;46.18
41040;BME280;48586;50.122;18.972;2023-04-28T05:31:30;98938.28;;;7.38;46.26
41040;BME280;48586;50.122;18.972;2023-04-28T05:33:37;98943.25;;;7.54;47.00
41040;BME280;48586;50.122;18.972;2023-04-28T05:35:42;98941.03;;;7.71;47.84
41040;BME280;48586;50.122;18.972;2023-04-28T05:37:50;98938.16;;;7.86;47.53
41040;BME280;48586;50.122;18.972;2023-04-28T05:39:55;98940.81;;;7.99;47.39
41040;BME280;48586;50.122;18.972;2023-04-28T05:42:00;98945.13;;;8.13;47.06
41040;BME280;48586;50.122;18.972;2023-04-28T05:44:06;98947.75;;;8.27;47.25
41040;BME280;48586;50.122;18.972;2023-04-28T05:46:11;98947.34;;;8.43;46.73
41040;BME280;48586;50.122;18.972;2023-04-28T05:48:19;98942.38;;;8.60;46.24
41040;BME280;48586;50.122;18.972;2023-04-28T05:50:27;98940.69;;;8.79;46.02
41040;BME280;48586;50.122;18.972;2023-04-28T05:52:33;98935.34;;;8.92;45.32
41040;BME280;48586;50.122;18.972;2023-04-28T05:54:38;98942.03;;;9.01;44.89
41040;BME280;48586;50.122;18.972;2023-04-28T05:56:45;98942.41;;;9.11;44.37
41040;BME280;48586;50.122;18.972;2023-04-28T05:58:49;98942.19;;;9.19;44.89
41040;BME280;48586;50.122;18.972;2023-04-28T06:00:54;98936.78;;;9.33;44.86
41040;BME280;48586;50.122;18.972;2023-04-28T06:03:01;98937.56;;;9.40;43.11
41040;BME280;48586;50.122;18.972;2023-04-28T06:05:06;98936.09;;;9.50;43.56
41040;BME280;48586;50.122;18.972;2023-04-28T06:07:14;98932.88;;;9.67;44.20
41040;BME280;48586;50.122;18.972;2023-04-28T06:09:20;98932.59;;;9.82;43.89
41040;BME280;48586;50.122;18.972;2023-04-28T06:11:27;98934.34;;;9.94;42.92
41040;BME280;48586;50.122;18.972;2023-04-28T06:13:32;98938.56;;;10.02;42.19
41040;BME280;48586;50.122;18.972;2023-04-28T06:15:38;98937.47;;;10.10;41.72
41040;BME280;48586;50.122;18.972;2023-04-28T06:17:44;98942.69;;;10.23;41.89
41040;BME280;48586;50.122;18.972;2023-04-28T06:19:49;98943.81;;;10.34;40.71
41040;BME280;48586;50.122;18.972;2023-04-28T06:21:56;98946.19;;;10.42;40.37
41040;BME280;48586;50.122;18.972;2023-04-28T06:24:04;98935.63;;;10.54;40.69
41040;BME280;48586;50.122;18.972;2023-04-28T06:26:10;98935.50;;;10.67;41.13
41040;BME280;48586;50.122;18.972;2023-04-28T06:28:16;98933.34;;;10.75;41.01
41040;BME280;48586;50.122;18.972;2023-04-28T06:30:22;98937.81;;;10.82;40.69
41040;BME280;48586;50.122;18.972;2023-04-28T06:32:29;98937.94;;;10.87;39.60
41040;BME280;48586;50.122;18.972;2023-04-28T06:34:36;98936.69;;;10.89;40.10
41040;BME280;48586;50.122;18.972;2023-04-28T06:36:41;98928.91;;;10.88;40.65
41040;BME280;48586;50.122;18.972;2023-04-28T06:38:46;98928.91;;;10.88;40.24
41040;BME280;48586;50.122;18.972;2023-04-28T06:40:55;98930.63;;;10.82;40.61
41040;BME280;48586;50.122;18.972;2023-04-28T06:43:01;98933.97;;;10.78;40.87
41040;BME280;48586;50.122;18.972;2023-04-28T06:45:22;98930.69;;;10.75;41.23
41040;BME280;48586;50.122;18.972;2023-04-28T06:47:27;98932.34;;;10.77;41.09
41040;BME280;48586;50.122;18.972;2023-04-28T06:49:33;98928.63;;;10.78;41.30
41040;BME280;48586;50.122;18.972;2023-04-28T06:51:37;98926.53;;;10.80;40.75
41040;BME280;48586;50.122;18.972;2023-04-28T06:53:44;98922.63;;;10.82;40.21
41040;BME280;48586;50.122;18.972;2023-04-28T06:55:52;98920.34;;;10.86;39.31
41040;BME280;48586;50.122;18.972;2023-04-28T06:58:03;98919.06;;;10.88;39.33
41040;BME280;48586;50.122;18.972;2023-04-28T07:00:10;98920.47;;;10.91;39.40
41040;BME280;48586;50.122;18.972;2023-04-28T07:02:15;98915.28;;;10.96;39.21
41040;BME280;48586;50.122;18.972;2023-04-28T07:04:20;98914.41;;;11.02;39.77
41040;BME280;48586;50.122;18.972;2023-04-28T07:06:25;98917.78;;;11.09;40.25
41040;BME280;48586;50.122;18.972;2023-04-28T07:08:31;98917.69;;;11.16;40.26
41040;BME280;48586;50.122;18.972;2023-04-28T07:10:37;98906.94;;;11.22;40.60
41040;BME280;48586;50.122;18.972;2023-04-28T07:12:45;98907.91;;;11.28;40.85
41040;BME280;48586;50.122;18.972;2023-04-28T07:14:51;98897.94;;;11.35;39.59
41040;BME280;48586;50.122;18.972;2023-04-28T07:16:55;98910.38;;;11.41;39.23
41040;BME280;48586;50.122;18.972;2023-04-28T07:19:02;98907.59;;;11.48;37.94
41040;BME280;48586;50.122;18.972;2023-04-28T07:21:07;98901.00;;;11.50;36.82
41040;BME280;48586;50.122;18.972;2023-04-28T07:23:12;98902.19;;;11.55;36.28
41040;BME280;48586;50.122;18.972;2023-04-28T07:25:17;98904.16;;;11.59;36.16
41040;BME280;48586;50.122;18.972;2023-04-28T07:27:23;98896.03;;;11.66;36.23
41040;BME280;48586;50.122;18.972;2023-04-28T07:29:30;98898.63;;;11.72;35.80
41040;BME280;48586;50.122;18.972;2023-04-28T07:31:37;98891.09;;;11.81;35.58
41040;BME280;48586;50.122;18.972;2023-04-28T07:33:42;98892.16;;;11.92;36.33
41040;BME280;48586;50.122;18.972;2023-04-28T07:35:47;98895.88;;;12.03;35.35
41040;BME280;48586;50.122;18.972;2023-04-28T07:37:56;98888.78;;;12.08;34.50
41040;BME280;48586;50.122;18.972;2023-04-28T07:40:02;98890.31;;;12.04;35.04
41040;BME280;48586;50.122;18.972;2023-04-28T07:42:09;98882.88;;;12.06;34.35
41040;BME280;48586;50.122;18.972;2023-04-28T07:44:15;98887.19;;;12.07;33.80
41040;BME280;48586;50.122;18.972;2023-04-28T07:46:23;98892.28;;;12.09;33.85
41040;BME280;48586;50.122;18.972;2023-04-28T07:48:28;98885.06;;;12.09;33.46
41040;BME280;48586;50.122;18.972;2023-04-28T07:50:34;98882.31;;;12.16;34.87
41040;BME280;48586;50.122;18.972;2023-04-28T07:52:39;98882.88;;;12.30;35.36
41040;BME280;48586;50.122;18.972;2023-04-28T07:54:44;98884.72;;;12.41;35.82
41040;BME280;48586;50.122;18.972;2023-04-28T07:56:51;98878.88;;;12.56;35.61
41040;BME280;48586;50.122;18.972;2023-04-28T07:58:56;98880.94;;;12.65;34.11
41040;BME280;48586;50.122;18.972;2023-04-28T08:01:00;98879.66;;;12.68;34.02
41040;BME280;48586;50.122;18.972;2023-04-28T08:03:09;98874.66;;;12.71;33.69
41040;BME280;48586;50.122;18.972;2023-04-28T08:05:15;98881.16;;;12.75;33.28
41040;BME280;48586;50.122;18.972;2023-04-28T08:07:19;98878.97;;;12.84;34.44
41040;BME280;48586;50.122;18.972;2023-04-28T08:09:26;98869.75;;;12.92;33.32
41040;BME280;48586;50.122;18.972;2023-04-28T08:11:31;98872.88;;;13.00;33.63
41040;BME280;48586;50.122;18.972;2023-04-28T08:13:36;98860.22;;;13.13;33.33
41040;BME280;48586;50.122;18.972;2023-04-28T08:15:42;98867.66;;;13.22;33.12
41040;BME280;48586;50.122;18.972;2023-04-28T08:17:48;98857.91;;;13.33;32.47
41040;BME280;48586;50.122;18.972;2023-04-28T08:19:55;98858.66;;;13.45;32.48
41040;BME280;48586;50.122;18.972;2023-04-28T08:22:01;98857.94;;;13.50;31.99
41040;BME280;48586;50.122;18.972;2023-04-28T08:24:07;98853.41;;;13.50;31.55
41040;BME280;48586;50.122;18.972;2023-04-28T08:26:12;98853.66;;;13.49;29.90
41040;BME280;48586;50.122;18.972;2023-04-28T08:28:18;98851.13;;;13.42;29.87
41040;BME280;48586;50.122;18.972;2023-04-28T08:30:22;98845.53;;;13.44;29.86
41040;BME280;48586;50.122;18.972;2023-04-28T08:32:27;98844.16;;;13.41;29.85
41040;BME280;48586;50.122;18.972;2023-04-28T08:34:34;98839.69;;;13.47;30.56
41040;BME280;48586;50.122;18.972;2023-04-28T08:36:41;98828.66;;;13.60;31.69
41040;BME280;48586;50.122;18.972;2023-04-28T08:38:47;98835.94;;;13.82;32.61
41040;BME280;48586;50.122;18.972;2023-04-28T08:40:53;98832.00;;;14.01;31.72
41040;BME280;48586;50.122;18.972;2023-04-28T08:42:59;98827.66;;;14.17;31.05
41040;BME280;48586;50.122;18.972;2023-04-28T08:45:05;98825.44;;;14.31;30.86
41040;BME280;48586;50.122;18.972;2023-04-28T08:47:12;98826.94;;;14.43;30.45
41040;BME280;48586;50.122;18.972;2023-04-28T08:49:17;98824.19;;;14.60;31.33
41040;BME280;48586;50.122;18.972;2023-04-28T08:51:33;98819.56;;;14.78;30.55
41040;BME280;48586;50.122;18.972;2023-04-28T08:53:49;98823.94;;;14.89;29.32
41040;BME280;48586;50.122;18.972;2023-04-28T08:55:57;98816.59;;;15.01;29.26
41040;BME280;48586;50.122;18.972;2023-04-28T08:58:02;98820.75;;;15.14;28.81
41040;BME280;48586;50.122;18.972;2023-04-28T09:00:10;98815.22;;;15.25;28.89
41040;BME280;48586;50.122;18.972;2023-04-28T09:02:16;98823.66;;;15.39;29.74
41040;BME280;48586;50.122;18.972;2023-04-28T09:04:22;98811.69;;;15.52;29.14
41040;BME280;48586;50.122;18.972;2023-04-28T09:06:32;98808.25;;;15.62;27.40
41040;BME280;48586;50.122;18.972;2023-04-28T09:08:39;98807.19;;;15.63;28.36
41040;BME280;48586;50.122;18.972;2023-04-28T09:10:46;98804.84;;;15.71;28.59
41040;BME280;48586;50.122;18.972;2023-04-28T09:12:53;98814.03;;;15.81;27.61
41040;BME280;48586;50.122;18.972;2023-04-28T09:14:58;98814.56;;;15.78;26.16
41040;BME280;48586;50.122;18.972;2023-04-28T09:17:13;98807.50;;;15.66;25.85
41040;BME280;48586;50.122;18.972;2023-04-28T09:19:19;98810.31;;;15.49;25.35
41040;BME280;48586;50.122;18.972;2023-04-28T09:21:24;98809.22;;;15.45;25.56
41040;BME280;48586;50.122;18.972;2023-04-28T09:23:30;98804.41;;;15.47;25.39
41040;BME280;48586;50.122;18.972;2023-04-28T09:25:36;98809.00;;;15.52;25.59
41040;BME280;48586;50.122;18.972;2023-04-28T09:27:44;98797.50;;;15.57;26.08
41040;BME280;48586;50.122;18.972;2023-04-28T09:29:52;98798.66;;;15.71;26.20
41040;BME280;48586;50.122;18.972;2023-04-28T09:32:13;98785.66;;;15.90;27.44
41040;BME280;48586;50.122;18.972;2023-04-28T09:34:19;98794.53;;;15.90;25.51
41040;BME280;48586;50.122;18.972;2023-04-28T09:36:28;98790.78;;;15.91;25.76
41040;BME280;48586;50.122;18.972;2023-04-28T09:38:43;98792.13;;;15.94;24.99
41040;BME280;48586;50.122;18.972;2023-04-28T09:40:55;98795.00;;;15.87;24.74
41040;BME280;48586;50.122;18.972;2023-04-28T09:43:08;98802.59;;;15.90;25.95
41040;BME280;48586;50.122;18.972;2023-04-28T09:45:38;98785.03;;;15.83;24.99
41040;BME280;48586;50.122;18.972;2023-04-28T09:47:46;98781.56;;;15.82;25.03
41040;BME280;48586;50.122;18.972;2023-04-28T09:49:55;98765.53;;;15.97;25.66
41040;BME280;48586;50.122;18.972;2023-04-28T09:52:12;98771.00;;;16.18;25.12
41040;BME280;48586;50.122;18.972;2023-04-28T09:54:20;98767.56;;;16.33;24.56
41040;BME280;48586;50.122;18.972;2023-04-28T09:56:28;98772.44;;;16.41;23.93
41040;BME280;48586;50.122;18.972;2023-04-28T09:58:40;98762.53;;;16.46;23.98
41040;BME280;48586;50.122;18.972;2023-04-28T10:00:52;98758.75;;;16.47;23.87
41040;BME280;48586;50.122;18.972;2023-04-28T10:03:00;98751.81;;;16.67;23.93
41040;BME280;48586;50.122;18.972;2023-04-28T10:05:07;98751.03;;;16.77;23.99
41040;BME280;48586;50.122;18.972;2023-04-28T10:07:14;98740.53;;;16.80;24.04
41040;BME280;48586;50.122;18.972;2023-04-28T10:09:21;98741.41;;;16.91;24.34
41040;BME280;48586;50.122;18.972;2023-04-28T10:11:31;98735.50;;;16.99;24.31
41040;BME280;48586;50.122;18.972;2023-04-28T10:13:41;98729.59;;;17.02;23.81
41040;BME280;48586;50.122;18.972;2023-04-28T10:15:46;98730.38;;;17.08;23.61
41040;BME280;48586;50.122;18.972;2023-04-28T10:17:56;98726.59;;;17.09;23.83
41040;BME280;48586;50.122;18.972;2023-04-28T10:20:04;98726.59;;;17.09;23.67
41040;BME280;48586;50.122;18.972;2023-04-28T10:25:25;98733.88;;;17.23;23.47
41040;BME280;48586;50.122;18.972;2023-04-28T10:27:36;98725.25;;;17.47;23.82
41040;BME280;48586;50.122;18.972;2023-04-28T10:29:46;98712.25;;;17.85;24.30
41040;BME280;48586;50.122;18.972;2023-04-28T10:32:13;98706.09;;;18.34;25.23
41040;BME280;48586;50.122;18.972;2023-04-28T10:34:23;98708.56;;;18.80;24.72
41040;BME280;48586;50.122;18.972;2023-04-28T10:36:47;98701.16;;;19.24;23.07
41040;BME280;48586;50.122;18.972;2023-04-28T10:39:10;98704.63;;;19.59;22.65
41040;BME280;48586;50.122;18.972;2023-04-28T10:41:33;98691.72;;;19.80;20.99
41040;BME280;48586;50.122;18.972;2023-04-28T10:43:38;98697.69;;;20.01;21.32
41040;BME280;48586;50.122;18.972;2023-04-28T10:48:51;98685.41;;;20.70;20.04
41040;BME280;48586;50.122;18.972;2023-04-28T10:51:22;98677.09;;;20.81;19.34
41040;BME280;48586;50.122;18.972;2023-04-28T10:54:08;98694.97;;;20.63;18.06
41040;BME280;48586;50.122;18.972;2023-04-28T10:56:25;98674.22;;;20.58;19.00
41040;BME280;48586;50.122;18.972;2023-04-28T10:58:31;98663.50;;;20.86;19.03
41040;BME280;48586;50.122;18.972;2023-04-28T11:00:43;98662.03;;;21.26;19.04
41040;BME280;48586;50.122;18.972;2023-04-28T11:02:51;98661.47;;;21.57;18.45
41040;BME280;48586;50.122;18.972;2023-04-28T11:05:14;98668.91;;;21.79;17.67
41040;BME280;48586;50.122;18.972;2023-04-28T11:07:20;98667.91;;;21.88;16.98
41040;BME280;48586;50.122;18.972;2023-04-28T11:09:47;98655.31;;;22.34;17.16
41040;BME280;48586;50.122;18.972;2023-04-28T11:12:13;98657.97;;;22.92;17.19
41040;BME280;48586;50.122;18.972;2023-04-28T11:14:33;98643.53;;;23.06;17.36
41040;BME280;48586;50.122;18.972;2023-04-28T11:16:48;98648.81;;;23.02;16.93
41040;BME280;48586;50.122;18.972;2023-04-28T11:19:03;98649.44;;;22.77;16.72